Terminal Aerodrome Forecast
Issued by NWS Atlanta, GA

Home | Current Version | Previous Version | Text Only | Print | Product List | Glossary On
Versions: 1 2 3 4 5 6 7 8 9 10 11 12 13 14 15 16
000
FTUS42 KFFC 231138
TAFCSG
TAF
KCSG 231138Z 2312/2412 26003KT P6SM FEW040 SCT120
     FM231600 27007KT P6SM VCSH BKN045
      TEMPO 2319/2323 4SM TSRA BKN035CB
     FM240100 29004KT P6SM BKN050 BKN120=

USA.gov is the U.S. government's official web portal to all federal, state and local government web resources and services.